createdAt,value
2018-05-18T00:01:01.404Z,0
2018-05-18T00:02:10.268Z,0
2018-05-18T00:03:19.401Z,0
2018-05-18T00:04:28.256Z,0
2018-05-18T00:05:37.216Z,0
2018-05-18T00:06:46.070Z,0
2018-05-18T00:07:54.931Z,0
2018-05-18T00:09:03.790Z,0
2018-05-18T00:10:13.207Z,0
2018-05-18T00:11:22.064Z,0
2018-05-18T00:12:30.929Z,0
2018-05-18T00:13:39.793Z,0
2018-05-18T00:14:48.643Z,0
2018-05-18T00:15:57.501Z,0
2018-05-18T00:17:06.714Z,0
2018-05-18T00:18:15.568Z,0
2018-05-18T00:19:24.427Z,0
2018-05-18T00:20:33.571Z,0
2018-05-18T00:21:42.429Z,0
2018-05-18T00:22:51.286Z,0
2018-05-18T00:24:00.146Z,0
2018-05-18T00:25:09.001Z,0
2018-05-18T00:26:17.861Z,0
2018-05-18T00:27:26.719Z,0
2018-05-18T00:28:36.316Z,0
2018-05-18T00:29:45.173Z,0
2018-05-18T00:30:54.030Z,0
2018-05-18T00:32:02.888Z,0
2018-05-18T00:33:12.023Z,0
2018-05-18T00:34:21.503Z,0
2018-05-18T00:35:30.361Z,0
2018-05-18T00:36:39.219Z,0
2018-05-18T00:37:48.076Z,0
2018-05-18T00:38:56.940Z,0
2018-05-18T00:40:06.404Z,0
2018-05-18T00:41:15.314Z,0
2018-05-18T00:42:25.017Z,0
2018-05-18T00:43:33.872Z,0
2018-05-18T00:44:43.006Z,0
2018-05-18T00:45:52.143Z,0
2018-05-18T00:47:01.002Z,0
2018-05-18T00:48:09.856Z,0
2018-05-18T00:49:18.716Z,0
2018-05-18T00:50:27.574Z,0
2018-05-18T00:51:36.433Z,0
2018-05-18T00:52:45.290Z,0
2018-05-18T00:53:54.147Z,0
2018-05-18T00:55:03.004Z,0
2018-05-18T00:56:11.860Z,0
2018-05-18T00:57:20.767Z,0
2018-05-18T00:58:29.625Z,0
2018-05-18T00:59:38.482Z,0
2018-05-18T01:00:47.622Z,0
2018-05-18T01:01:56.756Z,0
2018-05-18T01:03:05.964Z,0
2018-05-18T01:04:14.822Z,0
2018-05-18T01:05:23.954Z,0
2018-05-18T01:06:32.817Z,0
2018-05-18T01:07:41.675Z,0
2018-05-18T01:08:50.584Z,0
2018-05-18T01:09:59.723Z,0
2018-05-18T01:11:08.583Z,0
2018-05-18T01:12:17.438Z,0
2018-05-18T01:13:26.295Z,0
2018-05-18T01:14:35.152Z,0
2018-05-18T01:15:44.098Z,0
2018-05-18T01:16:52.871Z,0
2018-05-18T01:18:02.013Z,0
2018-05-18T01:19:10.869Z,0
2018-05-18T01:20:19.725Z,0
2018-05-18T01:21:28.581Z,0
2018-05-18T01:22:37.438Z,0
2018-05-18T01:23:46.295Z,0
2018-05-18T01:24:55.426Z,0
2018-05-18T01:26:04.531Z,0
2018-05-18T01:27:13.437Z,0
2018-05-18T01:28:22.573Z,0
2018-05-18T01:29:31.715Z,0
2018-05-18T01:30:40.571Z,0
2018-05-18T01:31:49.429Z,0
2018-05-18T01:32:58.292Z,0
2018-05-18T01:34:07.427Z,0
2018-05-18T01:35:16.568Z,0
2018-05-18T01:36:25.426Z,0
2018-05-18T01:37:34.281Z,0
2018-05-18T01:38:43.418Z,0
2018-05-18T01:39:52.551Z,0
2018-05-18T01:42:10.266Z,0
2018-05-18T01:43:19.123Z,0
2018-05-18T01:44:27.977Z,0
2018-05-18T01:45:36.834Z,0
2018-05-18T01:46:46.043Z,0
2018-05-18T01:47:54.901Z,0
2018-05-18T01:49:03.857Z,0
2018-05-18T01:50:12.712Z,0
2018-05-18T01:51:21.569Z,0
2018-05-18T01:52:30.425Z,0
2018-05-18T01:53:39.280Z,0
2018-05-18T01:54:48.762Z,0
2018-05-18T01:55:57.620Z,0
2018-05-18T01:57:06.474Z,0
2018-05-18T01:58:15.610Z,0
2018-05-18T01:59:24.465Z,0
2018-05-18T02:00:33.754Z,0
2018-05-18T02:01:42.609Z,0
2018-05-18T02:02:51.468Z,0
2018-05-18T02:04:00.324Z,0
2018-05-18T02:05:09.178Z,0
2018-05-18T02:06:18.547Z,0
2018-05-18T02:07:27.413Z,0
2018-05-18T02:08:36.549Z,0
2018-05-18T02:09:45.686Z,0
2018-05-18T02:10:54.819Z,0
2018-05-18T02:12:03.731Z,0
2018-05-18T02:13:12.872Z,0
2018-05-18T02:14:22.284Z,0
2018-05-18T02:15:31.142Z,0
2018-05-18T02:16:40.010Z,0
2018-05-18T02:17:49.151Z,0
2018-05-18T02:18:58.010Z,0
2018-05-18T02:20:06.868Z,0
2018-05-18T02:21:15.824Z,0
2018-05-18T02:22:24.680Z,0
2018-05-18T02:23:33.688Z,0
2018-05-18T02:24:42.546Z,0
2018-05-18T02:25:51.403Z,0
2018-05-18T02:27:00.259Z,0
2018-05-18T02:28:09.115Z,0
2018-05-18T02:29:18.404Z,0
2018-05-18T02:30:27.263Z,0
2018-05-18T02:31:36.122Z,0
2018-05-18T02:32:45.260Z,0
2018-05-18T02:33:54.119Z,0
2018-05-18T02:35:03.328Z,0
2018-05-18T02:36:12.472Z,0
2018-05-18T02:37:22.170Z,0
2018-05-18T02:38:31.033Z,0
2018-05-18T02:39:39.896Z,0
2018-05-18T02:40:49.457Z,0
2018-05-18T02:41:58.882Z,0
2018-05-18T02:43:07.746Z,0
2018-05-18T02:44:16.605Z,0
2018-05-18T02:45:25.739Z,0
2018-05-18T02:46:34.662Z,0
2018-05-18T02:47:43.808Z,0
2018-05-18T02:48:52.941Z,0
2018-05-18T02:50:02.074Z,0
2018-05-18T02:51:10.934Z,0
2018-05-18T02:52:20.474Z,4
2018-05-18T02:53:29.282Z,4
2018-05-18T02:54:38.416Z,4
2018-05-18T02:55:47.559Z,0
2018-05-18T02:56:56.691Z,4
2018-05-18T02:58:05.647Z,4
2018-05-18T02:59:14.781Z,4
2018-05-18T03:00:23.637Z,4
2018-05-18T03:01:32.773Z,8
2018-05-18T03:02:42.732Z,8
2018-05-18T03:03:51.946Z,4
2018-05-18T03:05:01.093Z,8
2018-05-18T03:06:09.958Z,12
2018-05-18T03:07:19.097Z,12
2018-05-18T03:08:28.525Z,12
2018-05-18T03:09:37.763Z,12
2018-05-18T03:10:46.625Z,12
2018-05-18T03:11:55.495Z,20
2018-05-18T03:13:04.627Z,16
2018-05-18T03:14:13.779Z,24
2018-05-18T03:15:22.633Z,24
2018-05-18T03:16:31.769Z,28
2018-05-18T03:17:40.904Z,28
2018-05-18T03:18:49.758Z,36
2018-05-18T03:19:58.613Z,36
2018-05-18T03:21:07.679Z,40
2018-05-18T03:22:16.436Z,44
2018-05-18T03:23:25.571Z,52
2018-05-18T03:24:34.428Z,60
2018-05-18T03:25:43.285Z,64
2018-05-18T03:26:52.291Z,68
2018-05-18T03:28:01.148Z,68
2018-05-18T03:29:10.008Z,76
2018-05-18T03:30:19.417Z,76
2018-05-18T03:31:28.848Z,88
2018-05-18T03:32:38.032Z,100
2018-05-18T03:33:46.888Z,104
2018-05-18T03:34:55.745Z,108
2018-05-18T03:36:04.600Z,116
2018-05-18T03:37:14.016Z,132
2018-05-18T03:38:23.125Z,120
2018-05-18T03:39:31.983Z,136
2018-05-18T03:40:40.844Z,148
2018-05-18T03:41:49.703Z,168
2018-05-18T03:42:58.561Z,164
2018-05-18T03:44:07.620Z,176
2018-05-18T03:45:16.755Z,180
2018-05-18T03:46:25.614Z,200
2018-05-18T03:47:34.746Z,208
2018-05-18T03:48:43.603Z,192
2018-05-18T03:49:52.609Z,200
2018-05-18T03:51:01.467Z,212
2018-05-18T03:52:10.325Z,216
2018-05-18T03:53:19.181Z,240
2018-05-18T03:54:28.319Z,240
2018-05-18T03:55:37.608Z,232
2018-05-18T03:56:46.465Z,236
2018-05-18T03:57:55.604Z,272
2018-05-18T03:59:04.460Z,272
2018-05-18T04:00:13.316Z,268
2018-05-18T04:01:22.338Z,296
2018-05-18T04:02:31.468Z,292
2018-05-18T04:03:40.321Z,312
2018-05-18T04:04:49.180Z,324
2018-05-18T04:05:58.037Z,364
2018-05-18T04:07:06.942Z,372
2018-05-18T04:08:16.085Z,364
2018-05-18T04:09:24.943Z,348
2018-05-18T04:10:33.810Z,388
2018-05-18T04:11:42.666Z,388
2018-05-18T04:12:51.524Z,396
2018-05-18T04:14:00.663Z,428
2018-05-18T04:15:09.522Z,412
2018-05-18T04:16:18.942Z,424
2018-05-18T04:17:27.802Z,424
2018-05-18T04:18:37.109Z,444
2018-05-18T04:19:46.305Z,424
2018-05-18T04:20:55.105Z,452
2018-05-18T04:22:03.964Z,476
2018-05-18T04:23:12.822Z,476
2018-05-18T04:24:21.828Z,520
2018-05-18T04:25:30.687Z,520
2018-05-18T04:26:39.548Z,540
2018-05-18T04:27:48.687Z,536
2018-05-18T04:28:57.541Z,608
2018-05-18T04:30:06.741Z,600
2018-05-18T04:31:15.845Z,644
2018-05-18T04:32:24.709Z,624
2018-05-18T04:33:33.841Z,612
2018-05-18T04:34:42.699Z,624
2018-05-18T04:35:51.895Z,644
2018-05-18T04:37:00.751Z,644
2018-05-18T04:38:09.607Z,704
2018-05-18T04:39:18.468Z,808
2018-05-18T04:40:27.327Z,764
2018-05-18T04:41:36.464Z,724
2018-05-18T04:42:45.856Z,708
2018-05-18T04:43:54.718Z,760
2018-05-18T04:45:03.575Z,696
2018-05-18T04:46:12.431Z,736
2018-05-18T04:47:21.388Z,760
2018-05-18T04:48:30.245Z,832
2018-05-18T04:49:39.387Z,804
2018-05-18T04:50:48.540Z,804
2018-05-18T04:51:57.696Z,788
2018-05-18T04:53:06.704Z,852
2018-05-18T04:54:15.562Z,832
2018-05-18T04:55:24.423Z,924
2018-05-18T04:56:33.279Z,884
2018-05-18T04:57:42.135Z,908
2018-05-18T04:58:51.009Z,940
2018-05-18T05:00:00.135Z,988
2018-05-18T05:01:09.268Z,1020
2018-05-18T05:02:18.403Z,1072
2018-05-18T05:03:27.270Z,992
2018-05-18T05:04:36.230Z,984
2018-05-18T05:05:45.091Z,996
2018-05-18T05:06:54.524Z,1020
2018-05-18T05:08:03.382Z,1076
2018-05-18T05:09:12.238Z,1020
2018-05-18T05:10:21.830Z,1024
2018-05-18T05:11:31.236Z,1068
2018-05-18T05:12:41.163Z,1112
2018-05-18T05:13:51.215Z,1140
2018-05-18T05:15:01.286Z,1124
2018-05-18T05:16:11.584Z,1148
2018-05-18T05:17:20.561Z,1112
2018-05-18T05:18:29.417Z,1100
2018-05-18T05:19:38.278Z,1080
2018-05-18T05:20:47.141Z,1056
2018-05-18T05:21:56.143Z,1076
2018-05-18T05:23:05.011Z,1076
2018-05-18T05:24:14.174Z,1116
2018-05-18T05:25:23.032Z,1148
2018-05-18T05:26:31.888Z,1204
2018-05-18T05:27:40.848Z,1164
2018-05-18T05:28:49.704Z,1220
2018-05-18T05:29:58.563Z,1300
2018-05-18T05:31:07.693Z,1520
2018-05-18T05:32:16.554Z,1372
2018-05-18T05:33:25.461Z,1312
2018-05-18T05:34:34.598Z,1320
2018-05-18T05:35:43.453Z,1344
2018-05-18T05:36:52.689Z,1372
2018-05-18T05:38:01.547Z,1368
2018-05-18T05:39:10.408Z,1368
2018-05-18T05:40:19.264Z,1380
2018-05-18T05:41:28.124Z,1560
2018-05-18T05:42:36.983Z,1496
2018-05-18T05:43:45.840Z,1492
2018-05-18T05:44:55.025Z,1704
2018-05-18T05:46:03.883Z,1708
2018-05-18T05:47:12.741Z,1672
2018-05-18T05:48:21.597Z,1980
2018-05-18T05:49:30.456Z,2076
2018-05-18T05:50:39.472Z,1948
2018-05-18T05:51:48.329Z,1800
2018-05-18T05:52:57.235Z,1824
2018-05-18T05:54:06.463Z,1844
2018-05-18T05:55:15.320Z,1960
2018-05-18T05:56:24.230Z,1832
2018-05-18T05:57:33.089Z,1584
2018-05-18T05:58:41.949Z,1548
2018-05-18T05:59:50.806Z,1656
2018-05-18T06:00:59.671Z,1620
2018-05-18T06:02:08.908Z,1560
2018-05-18T06:03:17.767Z,1652
2018-05-18T06:04:26.623Z,1608
2018-05-18T06:05:35.759Z,1768
2018-05-18T06:06:44.622Z,1972
2018-05-18T06:07:54.188Z,1968
2018-05-18T06:09:03.049Z,1928
2018-05-18T06:10:11.907Z,1968
2018-05-18T06:11:20.769Z,1932
2018-05-18T06:12:29.628Z,2044
2018-05-18T06:13:38.539Z,2084
2018-05-18T06:14:47.395Z,2040
2018-05-18T06:15:56.252Z,2024
2018-05-18T06:17:37.169Z,1984
2018-05-18T06:18:46.177Z,1968
2018-05-18T06:19:55.037Z,2116
2018-05-18T06:21:03.902Z,2164
2018-05-18T06:22:13.038Z,2188
2018-05-18T06:23:21.896Z,2400
2018-05-18T06:24:31.334Z,2352
2018-05-18T06:25:40.191Z,2360
2018-05-18T06:26:49.336Z,2432
2018-05-18T06:27:58.472Z,2576
2018-05-18T06:29:07.347Z,2712
2018-05-18T06:30:16.257Z,2604
2018-05-18T06:31:25.127Z,2660
2018-05-18T06:32:33.996Z,2872
2018-05-18T06:33:42.869Z,2820
2018-05-18T06:34:52.380Z,2820
2018-05-18T06:36:01.244Z,2816
2018-05-18T06:37:10.102Z,2968
2018-05-18T06:38:18.963Z,2868
2018-05-18T06:39:27.828Z,2780
2018-05-18T06:40:36.683Z,2848
2018-05-18T06:41:45.592Z,2956
2018-05-18T06:42:54.449Z,2900
2018-05-18T06:44:03.314Z,3084
2018-05-18T06:45:12.170Z,3160
2018-05-18T06:46:21.028Z,3064
2018-05-18T06:47:30.037Z,3264
2018-05-18T06:48:39.172Z,3316
2018-05-18T06:49:48.309Z,3172
2018-05-18T06:50:57.165Z,2984
2018-05-18T06:52:06.027Z,3128
2018-05-18T06:53:15.595Z,2988
2018-05-18T06:54:24.457Z,3060
2018-05-18T06:55:33.315Z,3212
2018-05-18T06:56:42.175Z,3420
2018-05-18T06:57:51.313Z,3440
2018-05-18T06:59:00.276Z,3320
2018-05-18T07:00:09.415Z,3464
2018-05-18T07:01:18.549Z,3680
2018-05-18T07:02:27.409Z,3580
2018-05-18T07:03:36.270Z,3540
2018-05-18T07:04:45.275Z,3496
2018-05-18T07:05:54.135Z,3420
2018-05-18T07:07:02.997Z,3368
2018-05-18T07:08:12.131Z,3608
2018-05-18T07:09:20.989Z,3756
2018-05-18T07:10:30.020Z,3932
2018-05-18T07:11:38.858Z,3816
2018-05-18T07:12:47.714Z,3876
2018-05-18T07:13:56.854Z,4092
2018-05-18T07:15:05.990Z,3920
2018-05-18T07:16:14.950Z,3792
2018-05-18T07:17:23.806Z,3668
2018-05-18T07:18:32.664Z,3596
2018-05-18T07:19:41.530Z,3736
2018-05-18T07:20:50.393Z,3580
2018-05-18T07:21:59.879Z,3560
2018-05-18T07:23:09.404Z,3596
2018-05-18T07:24:18.824Z,3664
2018-05-18T07:25:27.681Z,3648
2018-05-18T07:26:36.543Z,3812
2018-05-18T07:27:45.403Z,3868
2018-05-18T07:28:54.261Z,3772
2018-05-18T07:30:03.520Z,3984
2018-05-18T07:31:12.861Z,4116
2018-05-18T07:32:21.722Z,4116
2018-05-18T07:33:30.631Z,4424
2018-05-18T07:34:39.492Z,4592
2018-05-18T07:35:48.353Z,4860
2018-05-18T07:36:57.490Z,5036
2018-05-18T07:38:06.354Z,5260
2018-05-18T07:39:15.589Z,5336
2018-05-18T07:40:24.447Z,5024
2018-05-18T07:41:33.314Z,4676
2018-05-18T07:42:42.450Z,4972
2018-05-18T07:43:51.764Z,4976
2018-05-18T07:45:00.693Z,4488
2018-05-18T07:46:09.550Z,4564
2018-05-18T07:47:18.411Z,4720
2018-05-18T07:48:27.547Z,4528
2018-05-18T07:49:36.406Z,4456
2018-05-18T07:50:45.323Z,4676
2018-05-18T07:51:54.181Z,4564
2018-05-18T07:53:03.041Z,4536
2018-05-18T07:54:11.901Z,4448
2018-05-18T07:55:20.761Z,4248
2018-05-18T07:56:29.671Z,4428
2018-05-18T07:57:38.813Z,4464
2018-05-18T07:58:47.671Z,4656
2018-05-18T07:59:56.534Z,4412
2018-05-18T08:01:05.391Z,4888
2018-05-18T08:02:14.251Z,5396
2018-05-18T08:03:23.109Z,5204
2018-05-18T08:04:31.971Z,5344
2018-05-18T08:05:40.830Z,5308
2018-05-18T08:06:49.687Z,5864
2018-05-18T08:07:59.006Z,6028
2018-05-18T08:09:07.864Z,5948
2018-05-18T08:10:16.723Z,5160
2018-05-18T08:11:25.584Z,4996
2018-05-18T08:12:34.814Z,5424
2018-05-18T08:13:44.031Z,5448
2018-05-18T08:14:53.175Z,5540
2018-05-18T08:16:02.309Z,5960
2018-05-18T08:17:11.167Z,6628
2018-05-18T08:18:20.028Z,7356
2018-05-18T08:19:29.040Z,7088
2018-05-18T08:20:38.177Z,7328
2018-05-18T08:21:47.501Z,8024
2018-05-18T08:22:56.365Z,7684
2018-05-18T08:24:05.230Z,7164
2018-05-18T08:25:14.519Z,6608
2018-05-18T08:26:23.660Z,6124
2018-05-18T08:27:32.530Z,6468
2018-05-18T08:28:41.669Z,6540
2018-05-18T08:29:50.528Z,6592
2018-05-18T08:30:59.440Z,6940
2018-05-18T08:32:08.300Z,6372
2018-05-18T08:33:17.161Z,6216
2018-05-18T08:34:26.022Z,6292
2018-05-18T08:35:34.883Z,5660
2018-05-18T08:36:44.124Z,5876
2018-05-18T08:37:53.292Z,6312
2018-05-18T08:39:02.152Z,6760
2018-05-18T08:40:11.020Z,6848
2018-05-18T08:41:20.441Z,6512
2018-05-18T08:42:29.678Z,5944
2018-05-18T08:43:38.540Z,6048
2018-05-18T08:44:47.403Z,6316
2018-05-18T08:45:56.547Z,6260
2018-05-18T08:47:05.508Z,6116
2018-05-18T08:48:14.517Z,6044
2018-05-18T08:49:23.378Z,6476
2018-05-18T08:50:32.236Z,6600
2018-05-18T08:51:41.376Z,6512
2018-05-18T08:52:50.235Z,6404
2018-05-18T08:53:59.429Z,6436
2018-05-18T08:55:08.291Z,6424
2018-05-18T08:56:17.151Z,6416
2018-05-18T08:57:26.012Z,6484
2018-05-18T08:58:34.872Z,6668
2018-05-18T08:59:44.170Z,6872
2018-05-18T09:00:53.308Z,6760
2018-05-18T09:02:02.171Z,7084
2018-05-18T09:03:11.034Z,7756
2018-05-18T09:04:19.895Z,8036
2018-05-18T09:05:29.083Z,8812
2018-05-18T09:06:38.224Z,9008
2018-05-18T09:07:47.084Z,8824
2018-05-18T09:08:56.015Z,7996
2018-05-18T09:10:05.251Z,7872
2018-05-18T09:11:14.260Z,7332
2018-05-18T09:12:23.401Z,7320
2018-05-18T09:13:32.541Z,6772
2018-05-18T09:14:41.408Z,6524
2018-05-18T09:15:50.324Z,6752
2018-05-18T09:16:59.507Z,6756
2018-05-18T09:18:08.366Z,7208
2018-05-18T09:19:17.229Z,7660
2018-05-18T09:20:26.092Z,8192
2018-05-18T09:21:35.249Z,8128
2018-05-18T09:22:44.108Z,7664
2018-05-18T09:23:53.259Z,8280
2018-05-18T09:25:02.121Z,8776
2018-05-18T09:26:10.981Z,9632
2018-05-18T09:27:19.843Z,9060
2018-05-18T09:28:28.757Z,8084
2018-05-18T09:29:37.616Z,7568
2018-05-18T09:30:46.758Z,8144
2018-05-18T09:31:55.614Z,8660
2018-05-18T09:33:04.474Z,8772
2018-05-18T09:34:14.003Z,8032
2018-05-18T09:35:23.214Z,8056
2018-05-18T09:36:32.357Z,7748
2018-05-18T09:37:41.219Z,8348
2018-05-18T09:38:50.083Z,8460
2018-05-18T09:39:59.630Z,8616
2018-05-18T09:41:08.493Z,9252
2018-05-18T09:42:17.354Z,9992
2018-05-18T09:43:26.216Z,10576
2018-05-18T09:44:35.080Z,10104
2018-05-18T09:45:44.142Z,9860
2018-05-18T09:46:53.005Z,9976
2018-05-18T09:48:02.146Z,9676
2018-05-18T09:49:11.313Z,9520
2018-05-18T09:50:20.168Z,9008
2018-05-18T09:51:29.031Z,9024
2018-05-18T09:52:37.892Z,8912
2018-05-18T09:53:47.033Z,9688
2018-05-18T09:54:57.319Z,10516
2018-05-18T09:56:06.922Z,10340
2018-05-18T09:57:15.885Z,10840
2018-05-18T09:58:24.744Z,10964
2018-05-18T09:59:33.605Z,11616
2018-05-18T10:00:42.527Z,11668
2018-05-18T10:01:51.683Z,11240
2018-05-18T10:03:00.694Z,11484
2018-05-18T10:04:09.558Z,12008
2018-05-18T10:05:18.420Z,12348
2018-05-18T10:06:27.281Z,12236
2018-05-18T10:07:36.148Z,13060
2018-05-18T10:08:45.166Z,13312
2018-05-18T10:09:54.095Z,14296
2018-05-18T10:11:03.051Z,14372
2018-05-18T10:12:12.020Z,14056
2018-05-18T10:13:20.911Z,14832
2018-05-18T10:14:30.395Z,14556
2018-05-18T10:15:39.957Z,13900
2018-05-18T10:16:48.986Z,13872
2018-05-18T10:17:58.239Z,13668
2018-05-18T10:19:07.584Z,13408
2018-05-18T10:20:16.919Z,13568
2018-05-18T10:21:25.923Z,12708
2018-05-18T10:22:35.042Z,12784
2018-05-18T10:23:44.029Z,11844
2018-05-18T10:24:53.148Z,11520
2018-05-18T10:26:02.359Z,11568
2018-05-18T10:27:11.360Z,10876
2018-05-18T10:28:20.224Z,10796
2018-05-18T10:29:29.358Z,10916
2018-05-18T10:30:38.623Z,10672
2018-05-18T10:31:47.707Z,10356
2018-05-18T10:32:57.572Z,9904
2018-05-18T10:34:06.629Z,10236
2018-05-18T10:35:15.829Z,10780
2018-05-18T10:36:24.944Z,10812
2018-05-18T10:37:34.115Z,10564
2018-05-18T10:38:43.037Z,10608
2018-05-18T10:39:52.170Z,10560
2018-05-18T10:41:01.387Z,10296
2018-05-18T10:42:10.650Z,10508
2018-05-18T10:43:20.742Z,10552
2018-05-18T10:44:30.060Z,10844
2018-05-18T10:45:39.123Z,11348
2018-05-18T10:46:48.261Z,11684
2018-05-18T10:47:57.125Z,11748
2018-05-18T10:49:06.042Z,12104
2018-05-18T10:50:14.903Z,11888
2018-05-18T10:51:23.763Z,12076
2018-05-18T10:52:32.906Z,13028
2018-05-18T10:53:42.327Z,13224
2018-05-18T10:54:51.619Z,14044
2018-05-18T10:56:00.760Z,13228
2018-05-18T10:57:09.625Z,12108
2018-05-18T10:58:18.494Z,12624
2018-05-18T10:59:27.351Z,12700
2018-05-18T11:00:36.266Z,12228
2018-05-18T11:01:45.128Z,11532
2018-05-18T11:02:53.989Z,11396
2018-05-18T11:04:03.132Z,11976
2018-05-18T11:05:12.019Z,11516
2018-05-18T11:06:21.316Z,11372
2018-05-18T11:07:30.180Z,11276
2018-05-18T11:08:39.040Z,10284
2018-05-18T11:09:47.901Z,9616
2018-05-18T11:10:56.764Z,8856
2018-05-18T11:12:05.975Z,7524
2018-05-18T11:13:14.841Z,6732
2018-05-18T11:14:23.982Z,6392
2018-05-18T11:15:33.131Z,6368
2018-05-18T11:16:41.998Z,6456
2018-05-18T11:17:50.860Z,6128
2018-05-18T11:18:59.727Z,5720
2018-05-18T11:20:08.981Z,5420
2018-05-18T11:21:17.760Z,5260
2018-05-18T11:22:27.180Z,5196
2018-05-18T11:23:36.371Z,5452
2018-05-18T11:24:45.234Z,6016
2018-05-18T11:25:54.094Z,6172
2018-05-18T11:27:03.520Z,5900
2018-05-18T11:28:12.381Z,5752
2018-05-18T11:29:21.445Z,5516
2018-05-18T11:30:30.583Z,5472
2018-05-18T11:31:39.445Z,5832
2018-05-18T11:32:48.585Z,6020
2018-05-18T11:33:57.447Z,6500
2018-05-18T11:35:06.921Z,7216
2018-05-18T11:36:15.782Z,7868
2018-05-18T11:37:24.645Z,8448
2018-05-18T11:38:33.514Z,8712
2018-05-18T11:39:42.371Z,9048
2018-05-18T11:40:51.561Z,9548
2018-05-18T11:42:00.701Z,9860
2018-05-18T11:43:09.561Z,10220
2018-05-18T11:44:18.424Z,11236
2018-05-18T11:45:27.289Z,12392
2018-05-18T11:46:36.310Z,13288
2018-05-18T11:47:45.448Z,14648
2018-05-18T11:48:54.310Z,16544
2018-05-18T11:50:03.466Z,17984
2018-05-18T11:51:12.905Z,18336
2018-05-18T11:52:22.392Z,19040
2018-05-18T11:53:31.543Z,19392
2018-05-18T11:54:40.772Z,19872
2018-05-18T11:55:49.915Z,24928
2018-05-18T11:56:58.774Z,33504
2018-05-18T11:58:07.740Z,64512
2018-05-18T11:59:16.653Z,20544
2018-05-18T12:00:25.519Z,20576
2018-05-18T12:01:34.657Z,19712
2018-05-18T12:02:43.797Z,19008
2018-05-18T12:03:52.990Z,25952
2018-05-18T12:05:01.854Z,18240
2018-05-18T12:06:11.009Z,18720
2018-05-18T12:07:19.875Z,19968
2018-05-18T12:08:28.760Z,19584
2018-05-18T12:09:38.114Z,18528
2018-05-18T12:10:46.980Z,19040
2018-05-18T12:11:55.848Z,20608
2018-05-18T12:13:05.001Z,19360
2018-05-18T12:14:14.311Z,17856
2018-05-18T12:15:23.784Z,15640
2018-05-18T12:16:32.643Z,14876
2018-05-18T12:17:41.505Z,14780
2018-05-18T12:18:50.656Z,15140
2018-05-18T12:19:59.519Z,14476
2018-05-18T12:21:08.437Z,13780
2018-05-18T12:22:17.864Z,12400
2018-05-18T12:23:27.008Z,12328
2018-05-18T12:24:35.870Z,12252
2018-05-18T12:25:44.733Z,11828
2018-05-18T12:26:53.874Z,12136
2018-05-18T12:28:03.298Z,13160
2018-05-18T12:29:12.166Z,13584
2018-05-18T12:30:21.311Z,13560
2018-05-18T12:31:30.527Z,13400
2018-05-18T12:32:39.292Z,13456
2018-05-18T12:33:48.433Z,13500
2018-05-18T12:34:57.852Z,11888
2018-05-18T12:36:06.716Z,10644
2018-05-18T12:37:16.010Z,10288
2018-05-18T12:38:25.218Z,11172
2018-05-18T12:39:34.688Z,13752
2018-05-18T12:40:43.554Z,18272
2018-05-18T12:41:52.697Z,30208
2018-05-18T12:43:01.840Z,24832
2018-05-18T12:44:10.984Z,45536
2018-05-18T12:45:19.846Z,33824
2018-05-18T12:46:28.711Z,23104
2018-05-18T12:47:37.577Z,19072
2018-05-18T12:48:46.595Z,19872
2018-05-18T12:49:55.464Z,17984
2018-05-18T12:51:04.328Z,17216
2018-05-18T12:52:13.474Z,17152
2018-05-18T12:53:22.340Z,24800
2018-05-18T12:54:31.257Z,19744
2018-05-18T12:55:40.124Z,16768
2018-05-18T12:56:48.992Z,17728
2018-05-18T12:57:57.862Z,18400
2018-05-18T12:59:06.728Z,17632
2018-05-18T13:00:15.643Z,17472
2018-05-18T13:01:24.509Z,18464
2018-05-18T13:02:33.372Z,24160
2018-05-18T13:03:42.236Z,27616
2018-05-18T13:04:51.377Z,26880
2018-05-18T13:06:00.390Z,44352
2018-05-18T13:07:09.259Z,75552
2018-05-18T13:08:18.471Z,20416
2018-05-18T13:09:27.319Z,15460
2018-05-18T13:10:36.188Z,12732
2018-05-18T13:11:45.483Z,13100
2018-05-18T13:12:54.347Z,15016
2018-05-18T13:14:03.214Z,19456
2018-05-18T13:15:12.080Z,38112
2018-05-18T13:16:20.947Z,88320
2018-05-18T13:17:30.142Z,72480
2018-05-18T13:18:39.011Z,29632
2018-05-18T13:19:47.881Z,28768
2018-05-18T13:20:56.748Z,23616
2018-05-18T13:22:05.616Z,28288
2018-05-18T13:23:14.531Z,53248
2018-05-18T13:24:23.397Z,43104
2018-05-18T13:25:32.263Z,41056
2018-05-18T13:26:41.134Z,46816
2018-05-18T13:27:50.002Z,81216
2018-05-18T13:28:58.878Z,79712
2018-05-18T13:30:08.024Z,62208
2018-05-18T13:31:17.447Z,66592
2018-05-18T13:32:26.319Z,86816
2018-05-18T13:33:35.190Z,84640
2018-05-18T13:34:44.156Z,87488
2018-05-18T13:35:53.027Z,84896
2018-05-18T13:37:01.899Z,85824
2018-05-18T13:38:11.050Z,78816
2018-05-18T13:39:20.206Z,36832
2018-05-18T13:40:29.409Z,82656
2018-05-18T13:41:38.572Z,85312
2018-05-18T13:42:47.443Z,33632
2018-05-18T13:43:56.317Z,80544
2018-05-18T13:45:05.491Z,82304
2018-05-18T13:46:15.145Z,75872
2018-05-18T13:47:24.851Z,71680
2018-05-18T13:48:33.723Z,75424
2018-05-18T13:49:42.597Z,77696
2018-05-18T13:50:51.473Z,76416
2018-05-18T13:52:00.631Z,74720
2018-05-18T13:53:09.507Z,79136
2018-05-18T13:54:18.383Z,81920
2018-05-18T13:55:27.257Z,81088
2018-05-18T13:56:36.137Z,83936
2018-05-18T13:57:46.020Z,81024
2018-05-18T13:58:54.897Z,82688
2018-05-18T14:00:03.771Z,80576
2018-05-18T14:01:13.217Z,74816
2018-05-18T14:02:22.091Z,70816
2018-05-18T14:03:31.318Z,46752
2018-05-18T14:04:40.474Z,79008
2018-05-18T14:05:49.350Z,78528
2018-05-18T14:06:58.224Z,78880
2018-05-18T14:08:07.101Z,78784
2018-05-18T14:09:16.028Z,72960
2018-05-18T14:10:24.903Z,70272
2018-05-18T14:11:34.058Z,73728
2018-05-18T14:12:42.938Z,74208
2018-05-18T14:13:51.808Z,27584
2018-05-18T14:15:00.964Z,20704
2018-05-18T14:16:10.129Z,31968
2018-05-18T14:17:19.007Z,48480
2018-05-18T14:18:28.162Z,27456
2018-05-18T14:19:37.040Z,77280
2018-05-18T14:20:46.364Z,79424
2018-05-18T14:21:55.521Z,62400
2018-05-18T14:23:04.396Z,22368
2018-05-18T14:24:13.835Z,16416
2018-05-18T14:25:22.711Z,17152
2018-05-18T14:26:33.359Z,17504
2018-05-18T14:27:42.234Z,52576
2018-05-18T14:28:51.104Z,33344
2018-05-18T14:29:59.981Z,61728
2018-05-18T14:31:09.131Z,28768
2018-05-18T14:32:18.054Z,68192
2018-05-18T14:33:26.930Z,80064
2018-05-18T14:34:35.802Z,73856
2018-05-18T14:35:44.954Z,29632
2018-05-18T14:36:54.109Z,72320
2018-05-18T14:38:03.148Z,73056
2018-05-18T14:39:12.307Z,79040
2018-05-18T14:40:21.192Z,77888
2018-05-18T14:41:30.062Z,77152
2018-05-18T14:42:38.938Z,77984
2018-05-18T14:43:49.831Z,76512
2018-05-18T14:44:58.632Z,75936
2018-05-18T14:46:07.508Z,70720
2018-05-18T14:47:16.484Z,74464
2018-05-18T14:48:25.638Z,57120
2018-05-18T14:49:34.662Z,46720
2018-05-18T14:50:43.540Z,64736
2018-05-18T14:51:52.416Z,24544
2018-05-18T14:53:01.567Z,76512
2018-05-18T14:54:10.719Z,72192
2018-05-18T14:55:19.975Z,71776
2018-05-18T14:56:28.851Z,72736
2018-05-18T14:57:37.729Z,73408
2018-05-18T14:58:46.607Z,75200
2018-05-18T14:59:55.490Z,74048
2018-05-18T15:01:04.710Z,70944
2018-05-18T15:02:13.586Z,69664
2018-05-18T15:03:22.794Z,71104
2018-05-18T15:04:31.671Z,66592
2018-05-18T15:05:40.729Z,65728
2018-05-18T15:06:49.995Z,69440
2018-05-18T15:07:58.872Z,70432
2018-05-18T15:09:07.749Z,71392
2018-05-18T15:10:16.628Z,72448
2018-05-18T15:11:25.509Z,67392
2018-05-18T15:12:34.487Z,20672
2018-05-18T15:13:43.643Z,43904
2018-05-18T15:14:52.520Z,16352
2018-05-18T15:16:01.396Z,18720
2018-05-18T15:17:10.344Z,24576
2018-05-18T15:18:19.757Z,18496
2018-05-18T15:19:28.634Z,22080
2018-05-18T15:20:37.794Z,26336
2018-05-18T15:21:46.668Z,37568
2018-05-18T15:22:55.818Z,17664
2018-05-18T15:24:04.795Z,11744
2018-05-18T15:25:13.942Z,41504
2018-05-18T15:26:22.865Z,57728
2018-05-18T15:27:31.738Z,60832
2018-05-18T15:28:40.693Z,64064
2018-05-18T15:29:49.638Z,62912
2018-05-18T15:30:58.507Z,50400
2018-05-18T15:32:07.382Z,11760
2018-05-18T15:33:16.255Z,11564